Time;durP1;ratioP1;P1;durP2;ratioP2;P2;SDS_P1;SDS_P2;PMS_P1;PMS_P2;Temp;Humidity;BMP_temperature;BMP_pressure;BME280_temperature;BME280_humidity;BME280_pressure;Samples;Min_cycle;Max_cycle;Signal;HPM_P1;HPM_P2
2022/02/24 00:02:07;;;;;;;0.03;0.03;;;6.80;99.90;;;;;;5187410;27;20574;-87
2022/02/24 00:04:33;;;;;;;0.00;0.00;;;6.90;99.90;;;;;;5132298;28;20131;-87
2022/02/24 00:07:00;;;;;;;0.10;0.10;;;7.20;99.90;;;;;;5149041;28;20075;-87
2022/02/24 00:09:27;;;;;;;0.10;0.10;;;6.90;99.90;;;;;;5132559;28;20043;-87
2022/02/24 00:11:54;;;;;;;0.10;0.10;;;6.90;99.90;;;;;;5132682;28;20040;-87
2022/02/24 00:14:21;;;;;;;0.03;0.03;;;6.90;99.90;;;;;;5132253;28;20092;-87
2022/02/24 00:16:47;;;;;;;0.08;0.08;;;6.90;99.90;;;;;;5132640;28;20040;-88
2022/02/24 00:19:14;;;;;;;0.10;0.10;;;7.40;99.90;;;;;;5149002;27;20057;-86
2022/02/24 00:21:41;;;;;;;0.10;0.10;;;6.90;99.90;;;;;;5149211;28;20041;-86
2022/02/24 00:24:09;;;;;;;0.10;0.10;;;6.90;99.90;;;;;;5114785;28;20035;-88
2022/02/24 00:26:37;;;;;;;0.10;0.10;;;6.90;99.90;;;;;;5149217;28;20035;-87
2022/02/24 00:29:04;;;;;;;0.10;0.10;;;6.90;99.90;;;;;;5132212;28;20039;-87
2022/02/24 00:31:31;;;;;;;0.10;0.10;;;6.90;99.90;;;;;;5132040;28;20035;-87
2022/02/24 00:34:01;;;;;;;0.10;0.10;;;6.90;99.90;;;;;;5132236;28;20092;-86
2022/02/24 00:36:28;;;;;;;0.10;0.10;;;8.10;99.90;;;;;;5114838;28;20075;-87
2022/02/24 00:38:55;;;;;;;0.10;0.10;;;6.90;99.90;;;;;;5131565;28;20448;-87
2022/02/24 00:41:21;;;;;;;0.10;0.10;;;6.90;99.90;;;;;;5131855;28;20032;-87
2022/02/24 00:43:48;;;;;;;0.10;0.10;;;6.90;99.90;;;;;;5148539;28;20036;-87
2022/02/24 00:46:15;;;;;;;0.10;0.10;;;6.30;99.90;;;;;;5131896;28;20036;-87
2022/02/24 00:48:42;;;;;;;0.10;0.10;;;6.90;99.90;;;;;;5148450;28;20140;-87
2022/02/24 00:51:08;;;;;;;0.00;0.00;;;6.90;99.90;;;;;;5148445;28;20054;-87
2022/02/24 00:53:41;;;;;;;0.08;0.08;;;6.80;99.90;;;;;;5165266;27;20070;-87
2022/02/24 00:56:08;;;;;;;0.08;0.08;;;6.90;99.90;;;;;;5149346;27;20053;-87
2022/02/24 00:58:35;;;;;;;0.00;0.00;;;6.90;99.90;;;;;;5148659;28;20043;-87
2022/02/24 01:01:03;;;;;;;0.10;0.10;;;7.10;99.90;;;;;;5148801;28;20039;-87
2022/02/24 01:03:30;;;;;;;0.03;0.03;;;6.90;99.90;;;;;;5114123;28;20059;-87
2022/02/24 01:05:57;;;;;;;0.10;0.10;;;6.80;99.90;;;;;;5131590;27;20039;-87
2022/02/24 01:08:27;;;;;;;0.10;0.10;;;6.90;99.90;;;;;;5131106;28;20038;-87
2022/02/24 01:10:53;;;;;;;0.10;0.10;;;6.90;99.90;;;;;;5132234;28;20496;-88
2022/02/24 01:13:20;;;;;;;0.00;0.00;;;6.90;99.90;;;;;;5147794;28;20042;-87
2022/02/24 01:15:47;;;;;;;0.00;0.00;;;6.90;99.90;;;;;;5165364;27;20043;-87
2022/02/24 01:18:14;;;;;;;0.10;0.10;;;6.90;99.90;;;;;;5147640;28;20083;-87
2022/02/24 01:20:41;;;;;;;0.00;0.00;;;7.00;99.90;;;;;;5148185;28;20032;-87
2022/02/24 01:23:07;;;;;;;0.10;0.10;;;6.90;99.90;;;;;;5130913;28;20046;-87
2022/02/24 01:25:34;;;;;;;0.10;0.10;;;6.80;99.90;;;;;;5114422;28;20043;-87
2022/02/24 01:28:01;;;;;;;0.10;0.10;;;6.90;99.90;;;;;;5131347;28;20405;-87
2022/02/24 01:30:28;;;;;;;0.10;0.10;;;6.80;99.90;;;;;;5130737;28;20039;-87
2022/02/24 01:32:55;;;;;;;0.10;0.10;;;6.90;99.90;;;;;;5165532;27;20373;-87
2022/02/24 01:35:22;;;;;;;0.10;0.10;;;7.80;99.90;;;;;;5164735;27;20373;-87
2022/02/24 01:37:49;;;;;;;0.10;0.10;;;6.90;99.90;;;;;;5148140;28;20048;-87
2022/02/24 01:40:17;;;;;;;0.08;0.08;;;6.90;99.90;;;;;;5147809;28;20468;-87
2022/02/24 01:42:44;;;;;;;0.10;0.10;;;6.90;99.90;;;;;;5130985;28;20058;-87
2022/02/24 01:45:12;;;;;;;0.05;0.05;;;6.90;99.90;;;;;;5113708;28;20515;-87
2022/02/24 01:47:41;;;;;;;0.10;0.10;;;7.00;99.90;;;;;;5113754;28;20046;-87
2022/02/24 01:50:09;;;;;;;0.10;0.10;;;6.90;99.90;;;;;;5148256;28;20538;-87
2022/02/24 01:52:38;;;;;;;0.00;0.00;;;6.90;99.90;;;;;;5113557;28;20039;-87
2022/02/24 01:55:05;;;;;;;0.10;0.10;;;6.80;99.90;;;;;;5130741;28;20039;-87
2022/02/24 01:57:32;;;;;;;0.00;0.00;;;6.80;99.90;;;;;;5147579;27;20259;-87
2022/02/24 01:59:59;;;;;;;0.05;0.05;;;6.80;99.90;;;;;;5113663;28;20036;-87
2022/02/24 02:02:26;;;;;;;0.10;0.10;;;6.80;99.90;;;;;;5147199;28;20067;-87
2022/02/24 02:04:53;;;;;;;0.10;0.10;;;6.80;99.90;;;;;;5113451;28;20059;-87
2022/02/24 02:07:22;;;;;;;0.10;0.10;;;6.80;99.90;;;;;;5168677;27;20542;-87
2022/02/24 02:09:49;;;;;;;0.00;0.00;;;6.80;99.90;;;;;;5152309;28;20039;-87
2022/02/24 02:12:19;;;;;;;0.10;0.10;;;6.80;99.90;;;;;;5134382;28;20050;-87
2022/02/24 02:14:46;;;;;;;0.00;0.00;;;6.80;99.90;;;;;;5134824;28;20094;-87
2022/02/24 02:17:13;;;;;;;0.00;0.00;;;6.80;99.90;;;;;;5135001;28;20040;-87
2022/02/24 02:19:39;;;;;;;0.00;0.00;;;6.80;99.90;;;;;;5168233;27;20152;-87
2022/02/24 02:22:06;;;;;;;0.03;0.03;;;6.80;99.90;;;;;;5135018;28;20036;-87
2022/02/24 02:24:33;;;;;;;0.00;0.00;;;6.70;99.90;;;;;;5133961;28;20113;-87
2022/02/24 02:27:00;;;;;;;0.10;0.10;;;6.60;99.90;;;;;;5134444;28;20039;-87
2022/02/24 02:29:26;;;;;;;0.08;0.08;;;6.70;99.90;;;;;;5151130;28;20054;-87
2022/02/24 02:31:53;;;;;;;0.10;0.10;;;6.70;99.90;;;;;;5134624;28;20130;-87
2022/02/24 02:34:20;;;;;;;0.10;0.10;;;6.70;99.90;;;;;;5133717;28;20039;-87
2022/02/24 02:36:48;;;;;;;0.00;0.00;;;6.70;99.90;;;;;;5168556;27;20180;-87
2022/02/24 02:39:15;;;;;;;0.05;0.05;;;7.00;99.90;;;;;;5134271;28;20416;-87
2022/02/24 02:41:45;;;;;;;0.10;0.10;;;6.70;99.90;;;;;;5134014;28;20035;-87
2022/02/24 02:44:13;;;;;;;0.10;0.10;;;6.70;99.90;;;;;;5134093;28;20043;-87
2022/02/24 02:46:40;;;;;;;0.10;0.10;;;6.70;99.90;;;;;;5116731;28;20797;-87
2022/02/24 02:49:07;;;;;;;0.10;0.10;;;6.70;99.90;;;;;;5134171;28;20035;-87
2022/02/24 02:51:33;;;;;;;0.10;0.10;;;6.70;99.90;;;;;;5116718;28;20521;-87
2022/02/24 02:54:00;;;;;;;0.10;0.10;;;6.70;99.90;;;;;;5133906;28;20046;-87
2022/02/24 02:56:27;;;;;;;0.10;0.10;;;6.70;99.90;;;;;;5116589;28;20035;-87
2022/02/24 02:58:54;;;;;;;0.10;0.10;;;6.60;99.90;;;;;;5150845;27;20039;-87
2022/02/24 03:01:20;;;;;;;0.00;0.00;;;6.60;99.90;;;;;;5134057;28;20496;-87
2022/02/24 03:03:47;;;;;;;0.10;0.10;;;6.60;99.90;;;;;;5133703;28;20508;-87
2022/02/24 03:06:14;;;;;;;0.10;0.10;;;6.60;99.90;;;;;;5167827;27;20048;-87
2022/02/24 03:08:41;;;;;;;0.10;0.10;;;6.60;99.90;;;;;;5150257;28;20067;-87
2022/02/24 03:11:07;;;;;;;0.10;0.10;;;6.60;99.90;;;;;;5116753;28;20095;-87
2022/02/24 03:13:35;;;;;;;0.00;0.00;;;6.60;99.90;;;;;;5150832;28;20091;-87
2022/02/24 03:16:02;;;;;;;0.10;0.10;;;6.60;99.90;;;;;;5150380;28;20075;-87
2022/02/24 03:18:29;;;;;;;0.00;0.00;;;6.60;99.90;;;;;;5132916;28;20039;-87
2022/02/24 03:20:56;;;;;;;0.10;0.10;;;6.80;99.90;;;;;;5167514;27;20039;-87
2022/02/24 03:23:23;;;;;;;0.10;0.10;;;6.60;99.90;;;;;;5150604;28;20039;-87
2022/02/24 03:25:49;;;;;;;0.00;0.00;;;6.60;99.90;;;;;;5150336;28;20507;-87
2022/02/24 03:28:16;;;;;;;0.10;0.10;;;6.60;99.90;;;;;;5150295;28;20092;-86
2022/02/24 03:30:43;;;;;;;0.10;0.10;;;6.60;99.90;;;;;;5167216;27;20047;-87
2022/02/24 03:33:10;;;;;;;0.10;0.10;;;6.80;99.90;;;;;;5133362;27;20036;-87
2022/02/24 03:35:36;;;;;;;0.10;0.10;;;6.50;99.90;;;;;;5149873;28;20134;-87
2022/02/24 03:38:03;;;;;;;0.10;0.10;;;6.80;99.90;;;;;;5132881;28;20096;-87
2022/02/24 03:40:30;;;;;;;0.10;0.10;;;6.50;99.90;;;;;;5132834;27;20045;-87
2022/02/24 03:42:56;;;;;;;0.05;0.05;;;6.50;99.90;;;;;;5132883;28;20046;-87
2022/02/24 03:45:23;;;;;;;0.10;0.10;;;6.50;99.90;;;;;;5132806;28;20051;-87
2022/02/24 03:47:50;;;;;;;0.10;0.10;;;6.50;99.90;;;;;;5149802;28;20031;-87
2022/02/24 03:50:17;;;;;;;0.10;0.10;;;6.40;99.90;;;;;;5132915;28;20623;-86
2022/02/24 03:52:43;;;;;;;0.10;0.10;;;6.40;99.90;;;;;;5132574;28;20088;-86
2022/02/24 03:55:11;;;;;;;0.10;0.10;;;6.40;99.90;;;;;;5133086;27;20040;-87
2022/02/24 03:57:37;;;;;;;0.10;0.10;;;6.30;99.90;;;;;;5149369;28;20039;-87
2022/02/24 04:00:06;;;;;;;0.10;0.10;;;6.30;99.90;;;;;;5183944;27;20406;-86
2022/02/24 04:02:33;;;;;;;0.10;0.10;;;6.20;99.90;;;;;;5110820;28;20036;-85
2022/02/24 04:05:03;;;;;;;0.10;0.10;;;6.20;99.90;;;;;;5095284;28;20378;-86
2022/02/24 04:07:30;;;;;;;0.10;0.10;;;6.20;99.90;;;;;;5095336;28;20079;-85
2022/02/24 04:09:57;;;;;;;0.10;0.10;;;6.30;99.90;;;;;;5095423;28;20047;-85
2022/02/24 04:12:24;;;;;;;0.10;0.10;;;6.30;99.90;;;;;;5095667;28;20046;-85
2022/02/24 04:14:50;;;;;;;0.10;0.10;;;6.30;99.90;;;;;;5095204;28;20078;-85
2022/02/24 04:17:17;;;;;;;0.15;0.15;;;6.30;99.90;;;;;;5112401;28;20079;-85
2022/02/24 04:19:44;;;;;;;0.10;0.10;;;6.30;99.90;;;;;;5094807;28;20036;-85
2022/02/24 04:22:11;;;;;;;0.10;0.10;;;6.30;99.90;;;;;;5095126;28;20507;-85
2022/02/24 04:24:37;;;;;;;0.10;0.10;;;6.30;99.90;;;;;;5094876;28;20035;-85
2022/02/24 04:27:05;;;;;;;0.10;0.10;;;6.40;99.90;;;;;;5095236;28;20036;-85
2022/02/24 04:29:32;;;;;;;0.10;0.10;;;6.40;99.90;;;;;;5094412;28;20075;-85
2022/02/24 04:31:59;;;;;;;0.10;0.10;;;6.40;99.90;;;;;;5111768;28;20094;-85
2022/02/24 04:34:25;;;;;;;0.10;0.10;;;6.40;99.90;;;;;;5111568;28;20493;-85
2022/02/24 04:36:52;;;;;;;0.10;0.10;;;7.30;99.90;;;;;;5111401;28;20044;-85
2022/02/24 04:39:19;;;;;;;0.10;0.10;;;6.40;99.90;;;;;;5094787;28;20453;-85
2022/02/24 04:41:46;;;;;;;0.00;0.00;;;6.40;99.90;;;;;;5094745;28;20040;-85
2022/02/24 04:44:13;;;;;;;0.10;0.10;;;6.40;99.90;;;;;;5094704;28;20122;-85
2022/02/24 04:46:39;;;;;;;0.40;0.40;;;6.40;99.90;;;;;;5094777;28;20032;-85
2022/02/24 04:49:06;;;;;;;0.10;0.10;;;6.70;99.90;;;;;;5094804;28;20035;-85
2022/02/24 04:51:33;;;;;;;0.00;0.00;;;6.40;99.90;;;;;;5094934;28;20035;-85
2022/02/24 04:53:59;;;;;;;0.10;0.10;;;6.40;99.90;;;;;;5094065;28;20079;-85
2022/02/24 04:56:26;;;;;;;0.10;0.10;;;6.40;99.90;;;;;;5094419;28;20038;-84
2022/02/24 04:58:53;;;;;;;0.10;0.10;;;6.30;99.90;;;;;;5093862;28;20047;-85
2022/02/24 05:01:19;;;;;;;0.00;0.00;;;6.30;99.90;;;;;;5094316;28;20079;-85
2022/02/24 05:03:46;;;;;;;0.00;0.00;;;6.30;99.90;;;;;;5093940;28;20040;-85
2022/02/24 05:06:13;;;;;;;0.10;0.10;;;6.30;99.90;;;;;;5094126;28;20064;-85
2022/02/24 05:08:43;;;;;;;0.10;0.10;;;6.20;99.90;;;;;;5093882;28;20078;-85
2022/02/24 05:11:10;;;;;;;0.10;0.10;;;6.30;99.90;;;;;;5094310;28;20035;-85
2022/02/24 05:13:36;;;;;;;0.10;0.10;;;6.30;99.90;;;;;;5094021;28;20062;-85
2022/02/24 05:16:03;;;;;;;0.10;0.10;;;6.20;99.90;;;;;;5094047;28;20040;-85
2022/02/24 05:18:31;;;;;;;0.10;0.10;;;6.30;99.90;;;;;;5094265;28;20488;-85
2022/02/24 05:20:57;;;;;;;0.03;0.03;;;6.30;99.90;;;;;;5094000;28;20484;-84
2022/02/24 05:23:24;;;;;;;0.10;0.10;;;6.30;99.90;;;;;;5094050;28;20040;-85
2022/02/24 05:25:51;;;;;;;0.10;0.10;;;6.30;99.90;;;;;;5093824;28;20036;-85
2022/02/24 05:28:17;;;;;;;0.10;0.10;;;6.20;99.90;;;;;;5094273;28;20241;-85
2022/02/24 05:30:44;;;;;;;0.10;0.10;;;6.20;99.90;;;;;;5093972;28;20040;-85
2022/02/24 05:33:11;;;;;;;0.15;0.15;;;6.20;99.90;;;;;;5093903;28;20085;-85
2022/02/24 05:35:37;;;;;;;0.10;0.10;;;6.40;99.90;;;;;;5094053;28;20040;-85
2022/02/24 05:38:04;;;;;;;0.10;0.10;;;7.00;99.90;;;;;;5109926;28;20416;-85
2022/02/24 05:40:31;;;;;;;0.05;0.05;;;6.90;99.90;;;;;;5093790;28;20438;-85
2022/02/24 05:42:58;;;;;;;0.10;0.10;;;6.70;99.90;;;;;;5093476;28;20137;-85
2022/02/24 05:45:25;;;;;;;0.10;0.10;;;6.10;99.90;;;;;;5110484;28;20043;-85
2022/02/24 05:47:52;;;;;;;0.10;0.10;;;6.10;99.90;;;;;;5093497;28;20123;-85
2022/02/24 05:50:18;;;;;;;0.10;0.10;;;6.10;99.90;;;;;;5094233;28;20040;-85
2022/02/24 05:52:45;;;;;;;0.00;0.00;;;6.00;99.90;;;;;;5093656;28;20385;-85
2022/02/24 05:55:12;;;;;;;0.10;0.10;;;6.30;99.90;;;;;;5093949;28;20373;-85
2022/02/24 05:57:44;;;;;;;0.00;0.00;;;6.30;99.90;;;;;;5093639;28;20611;-84
2022/02/24 06:00:12;;;;;;;0.10;0.10;;;5.90;99.90;;;;;;5110174;28;20413;-85
2022/02/24 06:02:39;;;;;;;0.08;0.08;;;6.00;99.90;;;;;;5110372;28;20032;-85
2022/02/24 06:05:06;;;;;;;0.10;0.10;;;6.00;99.90;;;;;;5109547;28;20059;-84
2022/02/24 06:07:33;;;;;;;0.10;0.10;;;5.90;99.90;;;;;;5093605;28;20100;-85
2022/02/24 06:10:00;;;;;;;0.10;0.10;;;6.20;99.90;;;;;;5110238;28;20078;-85
2022/02/24 06:12:27;;;;;;;0.10;0.10;;;6.00;99.90;;;;;;5110445;28;20050;-85
2022/02/24 06:14:53;;;;;;;0.10;0.10;;;6.00;99.90;;;;;;5092981;28;20043;-85
2022/02/24 06:17:20;;;;;;;0.10;0.10;;;6.00;99.90;;;;;;5110245;28;20040;-85
2022/02/24 06:19:47;;;;;;;0.10;0.10;;;6.30;99.90;;;;;;5109741;28;20036;-85
2022/02/24 06:22:14;;;;;;;0.10;0.10;;;6.00;99.90;;;;;;5093072;28;20162;-85
2022/02/24 06:24:41;;;;;;;0.05;0.05;;;6.30;99.90;;;;;;5092937;28;20127;-85
2022/02/24 06:27:07;;;;;;;0.10;0.10;;;6.00;99.90;;;;;;5109628;28;20075;-85
2022/02/24 06:29:34;;;;;;;0.10;0.10;;;6.00;99.90;;;;;;5092879;28;20408;-85
2022/02/24 06:32:01;;;;;;;0.10;0.10;;;6.00;99.90;;;;;;5094120;28;20036;-85
2022/02/24 06:34:29;;;;;;;0.10;0.10;;;6.10;99.90;;;;;;5092563;28;20093;-85
2022/02/24 06:36:56;;;;;;;0.00;0.00;;;6.10;99.90;;;;;;5092701;28;20079;-85
2022/02/24 06:39:23;;;;;;;0.20;0.20;;;6.20;99.90;;;;;;5092788;28;20079;-85
2022/02/24 06:41:49;;;;;;;0.10;0.10;;;6.10;99.90;;;;;;5092799;28;20040;-85
2022/02/24 06:44:16;;;;;;;0.08;0.08;;;6.10;99.90;;;;;;5092755;28;20123;-85
2022/02/24 06:46:44;;;;;;;0.10;0.10;;;6.20;99.90;;;;;;5108922;28;20040;-85
2022/02/24 06:49:12;;;;;;;0.10;0.10;;;6.10;99.90;;;;;;5092884;28;20621;-85
2022/02/24 06:51:39;;;;;;;0.10;0.10;;;6.30;99.90;;;;;;5094810;28;20093;-85
2022/02/24 06:54:06;;;;;;;0.10;0.10;;;6.20;99.90;;;;;;5113284;28;20509;-85
2022/02/24 06:56:33;;;;;;;0.10;0.10;;;6.30;99.90;;;;;;5096770;28;20044;-85
2022/02/24 06:58:59;;;;;;;0.10;0.10;;;6.20;99.90;;;;;;5115763;28;20042;-85
2022/02/24 07:01:26;;;;;;;0.10;0.10;;;6.20;99.90;;;;;;5116937;28;20073;-85
2022/02/24 07:03:53;;;;;;;0.10;0.10;;;6.30;99.90;;;;;;5116532;28;20373;-86
2022/02/24 07:06:20;;;;;;;0.10;0.10;;;6.60;99.90;;;;;;5133409;28;20055;-85
2022/02/24 07:08:46;;;;;;;0.10;0.10;;;6.30;99.90;;;;;;5100194;28;20040;-85
2022/02/24 07:11:13;;;;;;;0.10;0.10;;;6.30;99.90;;;;;;5099696;28;20046;-87
2022/02/24 07:13:40;;;;;;;0.15;0.15;;;6.80;99.90;;;;;;5100029;28;20039;-87
2022/02/24 07:16:07;;;;;;;0.10;0.10;;;6.30;99.90;;;;;;5116068;28;20043;-85
2022/02/24 07:18:34;;;;;;;0.10;0.10;;;6.40;99.90;;;;;;5099828;28;20064;-87
2022/02/24 07:21:01;;;;;;;0.10;0.10;;;6.40;99.90;;;;;;5099920;28;20113;-85
2022/02/24 07:23:27;;;;;;;0.10;0.10;;;6.40;99.90;;;;;;5100101;28;20552;-86
2022/02/24 07:25:56;;;;;;;0.10;0.10;;;6.40;99.90;;;;;;5116605;28;20812;-84
2022/02/24 07:28:23;;;;;;;0.10;0.10;;;6.80;99.90;;;;;;5100265;28;20074;-84
2022/02/24 07:30:52;;;;;;;0.10;0.10;;;7.40;99.90;;;;;;5116066;28;20123;-84
2022/02/24 07:33:19;;;;;;;0.05;0.05;;;6.50;99.90;;;;;;5115942;28;20467;-84
2022/02/24 07:35:47;;;;;;;0.05;0.05;;;6.90;99.90;;;;;;5099407;28;20067;-87
2022/02/24 07:38:13;;;;;;;0.00;0.00;;;6.50;99.90;;;;;;5116174;28;20047;-86
2022/02/24 07:40:40;;;;;;;0.10;0.10;;;6.50;99.90;;;;;;5098995;28;20080;-89
2022/02/24 07:43:07;;;;;;;0.10;0.10;;;6.60;99.90;;;;;;5116021;28;20126;-87
2022/02/24 07:45:34;;;;;;;0.10;0.10;;;6.60;99.90;;;;;;5097262;28;20036;-86
2022/02/24 07:48:01;;;;;;;0.10;0.10;;;6.60;99.90;;;;;;5112204;28;20070;-88
2022/02/24 07:50:27;;;;;;;0.05;0.05;;;6.60;99.90;;;;;;5079276;28;20386;-90
2022/02/24 07:52:54;;;;;;;0.10;0.10;;;6.60;99.90;;;;;;5090658;28;20036;-87
2022/02/24 07:55:21;;;;;;;0.08;0.08;;;6.70;99.90;;;;;;5115470;28;20096;-87
2022/02/24 07:57:47;;;;;;;0.10;0.10;;;6.60;99.90;;;;;;5115443;28;20076;-87
2022/02/24 08:00:15;;;;;;;0.10;0.10;;;7.00;99.90;;;;;;5115067;28;20046;-87
2022/02/24 08:02:43;;;;;;;0.10;0.10;;;6.60;99.90;;;;;;5132072;28;20047;-86
2022/02/24 08:05:11;;;;;;;0.10;0.10;;;6.70;99.90;;;;;;5114955;28;20481;-87
2022/02/24 08:07:38;;;;;;;0.10;0.10;;;6.70;99.90;;;;;;5131387;28;20059;-87
2022/02/24 08:10:06;;;;;;;0.10;0.10;;;6.80;99.90;;;;;;5132029;28;20046;-88
2022/02/24 08:12:38;;;;;;;0.10;0.10;;;6.80;99.90;;;;;;5132321;28;20043;-87
2022/02/24 08:15:07;;;;;;;0.10;0.10;;;6.90;99.90;;;;;;5113975;28;20035;-87
2022/02/24 08:17:34;;;;;;;0.10;0.10;;;7.00;99.90;;;;;;5115001;28;20077;-89
2022/02/24 08:20:05;;;;;;;0.00;0.00;;;7.00;99.90;;;;;;5114599;28;20488;-87
2022/02/24 08:22:36;;;;;;;0.10;0.10;;;7.10;99.90;;;;;;5131871;28;20036;-88
2022/02/24 08:25:04;;;;;;;0.10;0.10;;;7.10;99.90;;;;;;5132195;28;20476;-87
2022/02/24 08:27:34;;;;;;;0.10;0.10;;;7.20;99.90;;;;;;5115041;28;20480;-91
2022/02/24 08:30:06;;;;;;;0.10;0.10;;;7.20;99.90;;;;;;5111140;28;20405;-88
2022/02/24 08:32:33;;;;;;;0.10;0.10;;;7.30;99.90;;;;;;5116909;28;20100;-90
2022/02/24 08:35:01;;;;;;;0.70;0.20;;;7.40;99.90;;;;;;5131452;28;20042;-89
2022/02/24 08:37:28;;;;;;;0.00;0.00;;;7.50;99.90;;;;;;5113624;28;20403;-91
2022/02/24 08:39:57;;;;;;;0.10;0.10;;;7.50;99.90;;;;;;5098313;28;20047;-87
2022/02/24 08:42:27;;;;;;;0.00;0.00;;;7.60;99.90;;;;;;5097523;28;20576;-91
2022/02/24 08:44:57;;;;;;;0.05;0.05;;;7.70;99.90;;;;;;5098581;28;20067;-91
2022/02/24 08:47:25;;;;;;;0.03;0.03;;;7.80;99.90;;;;;;5114222;28;20044;-91
2022/02/24 08:49:51;;;;;;;0.00;0.00;;;7.90;99.90;;;;;;5131177;28;20043;-91
2022/02/24 08:52:18;;;;;;;0.10;0.10;;;8.00;99.90;;;;;;5115326;28;20069;-91
2022/02/24 08:54:46;;;;;;;0.10;0.10;;;8.00;99.90;;;;;;5097972;28;20043;-91
2022/02/24 08:57:13;;;;;;;0.10;0.10;;;8.10;99.90;;;;;;5114867;28;20505;-88
2022/02/24 08:59:40;;;;;;;0.10;0.10;;;8.20;99.90;;;;;;5114165;28;20047;-89
2022/02/24 09:02:08;;;;;;;0.00;0.00;;;8.20;99.90;;;;;;5110437;28;20069;-88
2022/02/24 09:04:35;;;;;;;0.10;0.10;;;8.30;99.90;;;;;;5161806;27;20053;-91
2022/02/24 09:07:02;;;;;;;0.08;0.08;;;8.30;99.90;;;;;;5106861;28;20492;-88
2022/02/24 09:09:29;;;;;;;0.10;0.10;;;8.30;99.90;;;;;;5133716;27;20045;-88
2022/02/24 09:11:56;;;;;;;0.10;0.10;;;8.40;99.90;;;;;;5101253;27;20054;-91
2022/02/24 09:14:23;;;;;;;0.00;0.00;;;8.50;99.90;;;;;;5121134;27;20464;-88
2022/02/24 09:16:49;;;;;;;0.00;0.00;;;8.60;99.90;;;;;;5117869;27;20495;-91
2022/02/24 09:19:16;;;;;;;0.00;0.00;;;8.60;99.90;;;;;;5117386;27;20475;-91
2022/02/24 09:21:43;;;;;;;0.00;0.00;;;8.50;99.90;;;;;;5117861;27;20563;-88
2022/02/24 09:24:10;;;;;;;0.00;0.00;;;8.60;99.90;;;;;;5100776;27;20039;-92
2022/02/24 09:26:36;;;;;;;0.10;0.10;;;8.70;99.90;;;;;;5100614;27;20184;-93
2022/02/24 09:29:04;;;;;;;0.00;0.00;;;8.80;99.90;;;;;;5134475;27;20042;-88
2022/02/24 09:31:32;;;;;;;0.10;0.10;;;8.80;99.90;;;;;;5133384;27;20050;-87
2022/02/24 09:33:59;;;;;;;0.00;0.00;;;8.80;99.90;;;;;;5133888;27;20050;-87
2022/02/24 09:36:25;;;;;;;0.00;0.00;;;8.90;99.90;;;;;;5100089;27;20499;-87
2022/02/24 09:38:52;;;;;;;0.00;0.00;;;8.80;99.90;;;;;;5100090;27;20035;-90
2022/02/24 09:41:23;;;;;;;0.10;0.10;;;8.80;99.90;;;;;;5117041;27;20039;-90
2022/02/24 09:43:50;;;;;;;0.00;0.00;;;8.80;99.90;;;;;;5117972;27;20092;-87
2022/02/24 09:46:17;;;;;;;0.00;0.00;;;8.70;99.90;;;;;;5100808;28;20030;-90
2022/02/24 09:48:45;;;;;;;0.00;0.00;;;8.70;99.90;;;;;;5134539;28;20457;-88
2022/02/24 09:51:16;;;;;;;0.00;0.00;;;8.70;99.90;;;;;;5116710;27;20039;-87
2022/02/24 09:53:44;;;;;;;0.00;0.00;;;8.70;99.90;;;;;;5134513;28;20074;-90
2022/02/24 09:56:23;;;;;;;0.00;0.00;;;8.70;99.90;;;;;;5116895;28;20103;-91
2022/02/24 09:58:52;;;;;;;0.10;0.10;;;8.80;99.90;;;;;;5115700;28;20035;-90
2022/02/24 10:01:19;;;;;;;0.00;0.00;;;8.90;99.90;;;;;;5131939;28;20894;-91
2022/02/24 10:03:48;;;;;;;0.00;0.00;;;8.80;99.90;;;;;;5119688;28;20043;-90
2022/02/24 10:06:16;;;;;;;0.00;0.00;;;8.90;99.90;;;;;;5116462;28;20096;-91
2022/02/24 10:08:48;;;;;;;0.00;0.00;;;8.90;99.90;;;;;;5133733;28;20066;-88
2022/02/24 10:11:25;;;;;;;0.00;0.00;;;8.90;99.90;;;;;;5116717;28;20051;-87
2022/02/24 10:14:13;;;;;;;0.00;0.00;;;8.80;99.90;;;;;;5133786;28;20050;-90
2022/02/24 10:17:15;;;;;;;0.10;0.10;;;8.80;99.90;;;;;;5131140;28;20046;-88
2022/02/24 10:19:45;;;;;;;0.10;0.10;;;8.90;99.90;;;;;;5106522;28;20040;-88
2022/02/24 10:22:19;;;;;;;0.00;0.00;;;8.90;99.90;;;;;;5113280;28;20044;-88
2022/02/24 10:25:11;;;;;;;0.00;0.00;;;8.90;99.90;;;;;;5125584;28;20453;-87
2022/02/24 10:27:42;;;;;;;0.00;0.00;;;8.90;99.90;;;;;;5135949;27;20039;-92
2022/02/24 10:30:17;;;;;;;0.00;0.00;;;8.90;99.90;;;;;;5122185;27;20031;-89
2022/02/24 10:32:49;;;;;;;0.10;0.10;;;8.80;99.90;;;;;;5120743;27;20035;-89
2022/02/24 10:35:27;;;;;;;0.00;0.00;;;8.80;99.90;;;;;;5137322;27;20035;-92
2022/02/24 10:37:58;;;;;;;0.00;0.00;;;8.80;99.90;;;;;;5143368;27;20039;-89
2022/02/24 10:40:26;;;;;;;0.00;0.00;;;8.90;99.90;;;;;;5137376;27;20035;-92
2022/02/24 10:42:53;;;;;;;0.00;0.00;;;9.10;99.90;;;;;;5136896;27;20042;-87
2022/02/24 10:45:25;;;;;;;0.05;0.05;;;9.10;99.90;;;;;;5137297;27;20094;-89
2022/02/24 10:47:55;;;;;;;0.08;0.08;;;9.20;99.90;;;;;;5117005;28;20039;-90
2022/02/24 10:50:46;;;;;;;0.00;0.00;;;9.10;99.90;;;;;;5128196;28;20046;-90
2022/02/24 10:53:15;;;;;;;0.00;0.00;;;9.10;99.90;;;;;;5136230;27;20501;-87
2022/02/24 10:56:00;;;;;;;0.05;0.05;;;9.00;99.90;;;;;;5137079;27;20510;-87
2022/02/24 10:58:36;;;;;;;0.10;0.10;;;9.00;99.90;;;;;;5153519;27;20421;-87
2022/02/24 11:01:15;;;;;;;0.00;0.00;;;9.00;99.90;;;;;;5137108;27;20042;-90
2022/02/24 11:03:47;;;;;;;0.00;0.00;;;9.00;99.90;;;;;;5137208;27;20880;-87
2022/02/24 11:06:15;;;;;;;0.00;0.00;;;9.10;99.90;;;;;;5136240;27;20043;-90
2022/02/24 11:08:44;;;;;;;0.00;0.00;;;9.20;99.90;;;;;;5137381;27;20054;-90
2022/02/24 11:11:19;;;;;;;0.00;0.00;;;9.30;99.90;;;;;;5136700;27;20038;-87
2022/02/24 11:13:46;;;;;;;0.00;0.00;;;9.30;99.90;;;;;;5137803;27;20080;-91
2022/02/24 11:16:13;;;;;;;0.00;0.00;;;9.40;99.90;;;;;;5136731;27;20043;-90
2022/02/24 11:18:41;;;;;;;0.10;0.10;;;9.50;99.90;;;;;;5169133;27;20035;-89
2022/02/24 11:21:11;;;;;;;0.00;0.00;;;9.40;99.90;;;;;;5138486;27;20122;-90
2022/02/24 11:23:44;;;;;;;0.00;0.00;;;9.50;99.90;;;;;;5153322;27;20042;-87
2022/02/24 11:26:20;;;;;;;0.00;0.00;;;9.50;99.90;;;;;;5153698;27;20088;-85
2022/02/24 11:28:59;;;;;;;;;;;9.70;99.90;;;;;;5150783;27;20095;-90
2022/02/24 11:31:55;;;;;;;0.00;0.00;;;9.90;99.90;;;;;;5139633;27;19927;-91
2022/02/24 11:34:58;;;;;;;0.00;0.00;;;9.90;99.90;;;;;;5137541;27;20031;-91
2022/02/24 11:37:40;;;;;;;0.00;0.00;;;9.70;99.90;;;;;;5135109;27;20039;-87
2022/02/24 11:40:22;;;;;;;0.00;0.00;;;9.60;99.90;;;;;;5137282;27;20070;-90
2022/02/24 11:43:05;;;;;;;0.00;0.00;;;9.70;99.90;;;;;;5136138;27;20035;-90
2022/02/24 11:45:39;;;;;;;0.00;0.00;;;9.80;99.90;;;;;;5136145;27;20035;-90
2022/02/24 11:48:11;;;;;;;0.00;0.00;;;9.90;99.90;;;;;;5135431;27;20043;-90
2022/02/24 11:50:56;;;;;;;0.00;0.00;;;9.90;99.90;;;;;;5135158;27;20035;-89
2022/02/24 11:53:25;;;;;;;0.00;0.00;;;9.80;99.90;;;;;;5136176;27;20045;-87
2022/02/24 11:55:56;;;;;;;0.00;0.00;;;9.80;99.90;;;;;;5152637;27;20117;-87
2022/02/24 11:58:45;;;;;;;0.00;0.00;;;9.80;99.90;;;;;;5118889;27;20085;-90
2022/02/24 12:01:25;;;;;;;0.10;0.10;;;9.70;99.90;;;;;;5136003;27;20035;-86
2022/02/24 12:03:57;;;;;;;0.00;0.00;;;9.70;99.90;;;;;;5135439;27;20042;-84
2022/02/24 12:06:40;;;;;;;0.00;0.00;;;9.60;99.90;;;;;;5151776;27;20047;-87
2022/02/24 12:09:09;;;;;;;0.00;0.00;;;9.70;99.90;;;;;;5135827;27;20487;-90
2022/02/24 12:11:48;;;;;;;0.00;0.00;;;9.70;99.90;;;;;;5152805;27;20043;-90
2022/02/24 12:14:21;;;;;;;0.00;0.00;;;9.70;99.90;;;;;;5136259;27;20135;-87
2022/02/24 12:17:05;;;;;;;0.00;0.00;;;9.80;99.90;;;;;;5136308;27;20484;-87
2022/02/24 12:19:37;;;;;;;0.00;0.00;;;9.70;99.90;;;;;;5135249;27;20046;-87
2022/02/24 12:22:19;;;;;;;0.00;0.00;;;9.70;99.90;;;;;;5136059;27;20038;-90
2022/02/24 12:24:52;;;;;;;0.00;0.00;;;9.70;99.90;;;;;;5152940;27;20041;-90
2022/02/24 12:27:40;;;;;;;0.00;0.00;;;9.70;99.90;;;;;;5135827;27;20084;-89
2022/02/24 12:30:10;;;;;;;0.00;0.00;;;9.70;99.90;;;;;;5135530;27;20555;-87
2022/02/24 12:32:47;;;;;;;0.00;0.00;;;9.70;99.90;;;;;;5135438;27;20057;-87
2022/02/24 12:35:20;;;;;;;0.00;0.00;;;9.70;99.90;;;;;;5136114;27;20047;-89
2022/02/24 12:37:48;;;;;;;0.00;0.00;;;9.70;99.90;;;;;;5135438;27;20046;-88
2022/02/24 12:40:18;;;;;;;0.00;0.00;;;9.70;99.90;;;;;;5118756;27;20075;-87
2022/02/24 12:42:48;;;;;;;0.00;0.00;;;9.70;99.90;;;;;;5135028;27;20039;-87
2022/02/24 12:45:18;;;;;;;0.00;0.00;;;9.70;99.90;;;;;;5135454;27;20138;-90
2022/02/24 12:47:52;;;;;;;0.00;0.00;;;9.60;99.90;;;;;;5152262;27;20075;-87
2022/02/24 12:50:21;;;;;;;0.00;0.00;;;9.60;99.90;;;;;;5134263;27;20035;-88
2022/02/24 12:52:48;;;;;;;0.00;0.00;;;9.50;99.90;;;;;;5135224;27;20094;-88
2022/02/24 12:55:17;;;;;;;0.00;0.00;;;9.50;99.90;;;;;;5135242;27;20124;-87
2022/02/24 12:57:45;;;;;;;0.00;0.00;;;9.50;99.90;;;;;;5118386;27;20046;-89
2022/02/24 13:00:12;;;;;;;0.00;0.00;;;9.40;99.90;;;;;;5118613;27;20122;-90
2022/02/24 13:02:41;;;;;;;0.00;0.00;;;9.40;99.90;;;;;;5137770;27;20118;-90
2022/02/24 13:05:10;;;;;;;0.00;0.00;;;9.30;99.90;;;;;;5118063;27;20051;-90
2022/02/24 13:10:36;;;;;;;0.10;0.10;;;9.10;99.90;;;;;;5134304;27;20099;-88